createdAt,value
2019-05-30T00:01:29.148Z,15.29
2019-05-30T00:03:58.864Z,15.31
2019-05-30T00:06:28.623Z,15.26
2019-05-30T00:08:58.434Z,15.29
2019-05-30T00:11:27.575Z,15.25
2019-05-30T00:13:56.781Z,15.03
2019-05-30T00:16:25.927Z,14.87
2019-05-30T00:18:55.133Z,14.83
2019-05-30T00:21:24.289Z,14.51
2019-05-30T00:23:53.460Z,14.68
2019-05-30T00:26:22.632Z,14.77
2019-05-30T00:28:51.826Z,14.54
2019-05-30T00:31:21.014Z,14.69
2019-05-30T00:33:50.172Z,14.79
2019-05-30T00:36:19.348Z,14.53
2019-05-30T00:38:48.514Z,14.55
2019-05-30T00:41:17.720Z,14.57
2019-05-30T00:43:46.900Z,14.22
2019-05-30T00:46:16.062Z,14.49
2019-05-30T00:48:45.315Z,14.55
2019-05-30T00:51:14.500Z,14.69
2019-05-30T00:53:43.693Z,14.69
2019-05-30T00:56:12.894Z,14.33
2019-05-30T00:58:42.081Z,14.20
2019-05-30T01:01:12.959Z,14.32
2019-05-30T01:03:42.194Z,14.23
2019-05-30T01:06:11.394Z,14.36
2019-05-30T01:08:40.581Z,14.41
2019-05-30T01:11:09.750Z,14.29
2019-05-30T01:13:38.930Z,14.22
2019-05-30T01:16:08.102Z,14.29
2019-05-30T01:18:37.280Z,14.37
2019-05-30T01:21:07.407Z,14.18
2019-05-30T01:23:38.415Z,14.25
2019-05-30T01:26:08.385Z,14.26
2019-05-30T01:28:37.561Z,14.18
2019-05-30T01:31:10.184Z,14.21
2019-05-30T01:33:37.713Z,14.21
2019-05-30T01:36:07.906Z,14.25
2019-05-30T01:38:37.192Z,14.24
2019-05-30T01:41:06.451Z,14.30
2019-05-30T01:43:35.657Z,14.34
2019-05-30T01:46:06.124Z,14.31
2019-05-30T01:48:35.401Z,14.48
2019-05-30T01:51:04.664Z,14.38
2019-05-30T01:53:33.857Z,14.30
2019-05-30T01:56:03.203Z,14.27
2019-05-30T01:58:32.383Z,14.47
2019-05-30T02:01:17.067Z,14.46
2019-05-30T02:03:32.460Z,14.42
2019-05-30T02:06:03.292Z,14.35
2019-05-30T02:08:32.687Z,14.31
2019-05-30T02:11:01.906Z,14.40
2019-05-30T02:13:32.166Z,14.38
2019-05-30T02:16:01.615Z,14.59
2019-05-30T02:18:30.894Z,14.59
2019-05-30T02:21:00.076Z,14.68
2019-05-30T02:23:29.341Z,14.52
2019-05-30T02:25:59.958Z,14.65
2019-05-30T02:28:29.314Z,14.63
2019-05-30T02:30:58.537Z,14.79
2019-05-30T02:33:27.725Z,14.92
2019-05-30T02:36:15.280Z,14.93
2019-05-30T02:38:44.462Z,14.70
2019-05-30T02:41:13.656Z,14.70
2019-05-30T02:43:42.916Z,14.79
2019-05-30T02:46:12.543Z,14.77
2019-05-30T02:48:58.456Z,14.63
2019-05-30T02:51:13.442Z,14.70
2019-05-30T02:53:55.062Z,14.71
2019-05-30T02:56:24.290Z,14.55
2019-05-30T02:58:53.477Z,14.58
2019-05-30T03:01:22.657Z,14.70
2019-05-30T03:03:51.859Z,14.81
2019-05-30T03:06:21.216Z,14.59
2019-05-30T03:09:10.961Z,14.65
2019-05-30T03:11:39.596Z,14.69
2019-05-30T03:14:12.188Z,14.71
2019-05-30T03:16:39.761Z,14.84
2019-05-30T03:19:10.932Z,14.81
2019-05-30T03:21:39.896Z,14.74
2019-05-30T03:24:11.295Z,14.92
2019-05-30T03:26:40.057Z,14.95
2019-05-30T03:29:10.079Z,15.06
2019-05-30T03:31:41.323Z,15.13
2019-05-30T03:34:22.094Z,14.96
2019-05-30T03:36:41.449Z,14.97
2019-05-30T03:39:12.521Z,15.02
2019-05-30T03:41:41.868Z,14.77
2019-05-30T03:44:13.573Z,14.81
2019-05-30T03:46:47.814Z,14.87
2019-05-30T03:49:20.054Z,14.94
2019-05-30T03:51:50.769Z,14.99
2019-05-30T03:54:20.975Z,14.92
2019-05-30T03:57:04.785Z,14.88
2019-05-30T03:59:38.659Z,14.91
2019-05-30T04:02:15.720Z,15.00
2019-05-30T04:05:13.601Z,15.01
2019-05-30T04:07:45.552Z,14.94
2019-05-30T04:10:16.787Z,15.04
2019-05-30T04:12:54.915Z,15.05
2019-05-30T04:15:34.693Z,15.04
2019-05-30T04:18:03.955Z,14.96
2019-05-30T04:20:33.376Z,14.95
2019-05-30T04:23:02.548Z,14.99
2019-05-30T04:25:31.683Z,14.91
2019-05-30T04:28:00.885Z,14.90
2019-05-30T04:30:30.077Z,14.95
2019-05-30T04:33:16.172Z,15.03
2019-05-30T04:35:30.206Z,14.99
2019-05-30T04:37:59.395Z,15.00
2019-05-30T04:40:28.544Z,15.04
2019-05-30T04:42:57.741Z,14.93
2019-05-30T04:45:28.165Z,14.99
2019-05-30T04:47:57.789Z,14.92
2019-05-30T04:50:26.969Z,15.03
2019-05-30T04:52:56.189Z,14.97
2019-05-30T04:55:25.365Z,15.02
2019-05-30T04:57:54.571Z,14.86
2019-05-30T05:00:23.927Z,14.98
2019-05-30T05:02:53.110Z,15.01
2019-05-30T05:05:26.535Z,15.00
2019-05-30T05:07:53.178Z,15.06
2019-05-30T05:10:22.656Z,14.97
2019-05-30T05:12:51.882Z,15.04
2019-05-30T05:15:22.659Z,15.04
2019-05-30T05:17:51.983Z,15.14
2019-05-30T05:20:21.518Z,15.09
2019-05-30T05:22:50.864Z,15.16
2019-05-30T05:25:20.085Z,15.06
2019-05-30T05:27:56.300Z,15.03
2019-05-30T05:30:25.496Z,15.04
2019-05-30T05:32:54.693Z,15.02
2019-05-30T05:35:24.991Z,14.95
2019-05-30T05:37:54.252Z,14.97
2019-05-30T05:40:24.403Z,14.95
2019-05-30T05:42:53.760Z,15.00
2019-05-30T05:45:23.102Z,14.92
2019-05-30T05:47:52.320Z,14.86
2019-05-30T05:50:22.537Z,14.95
2019-05-30T05:52:51.902Z,14.96
2019-05-30T05:55:21.076Z,15.08
2019-05-30T05:57:50.262Z,15.02
2019-05-30T06:00:21.140Z,15.03
2019-05-30T06:02:50.535Z,15.04
2019-05-30T06:05:20.178Z,15.02
2019-05-30T06:07:49.513Z,15.08
2019-05-30T06:10:19.534Z,14.96
2019-05-30T06:12:48.863Z,15.06
2019-05-30T06:15:18.787Z,15.06
2019-05-30T06:17:48.212Z,15.06
2019-05-30T06:20:19.208Z,15.16
2019-05-30T06:22:48.410Z,15.19
2019-05-30T06:25:18.947Z,15.11
2019-05-30T06:27:48.625Z,15.12
2019-05-30T06:30:20.324Z,15.19
2019-05-30T06:32:49.673Z,15.12
2019-05-30T06:35:18.939Z,15.12
2019-05-30T06:38:06.211Z,15.17
2019-05-30T06:40:36.330Z,15.17
2019-05-30T06:43:05.516Z,15.19
2019-05-30T06:45:34.699Z,15.23
2019-05-30T06:48:03.958Z,15.22
2019-05-30T06:50:33.518Z,15.33
2019-05-30T06:53:02.739Z,15.32
2019-05-30T06:55:31.934Z,15.30
2019-05-30T06:58:01.123Z,15.34
2019-05-30T07:00:32.854Z,15.43
2019-05-30T07:03:01.666Z,15.50
2019-05-30T07:05:33.666Z,15.50
2019-05-30T07:08:01.756Z,15.53
2019-05-30T07:10:31.183Z,15.47
2019-05-30T07:13:00.379Z,15.50
2019-05-30T07:15:29.577Z,15.51
2019-05-30T07:17:58.796Z,15.37
2019-05-30T07:20:28.042Z,15.33
2019-05-30T07:22:57.231Z,15.40
2019-05-30T07:25:27.772Z,15.49
2019-05-30T07:27:57.162Z,15.45
2019-05-30T07:30:27.931Z,15.42
2019-05-30T07:32:57.114Z,15.41
2019-05-30T07:35:26.299Z,15.41
2019-05-30T07:37:55.500Z,15.51
2019-05-30T07:40:24.901Z,15.49
2019-05-30T07:42:54.101Z,15.57
2019-05-30T07:45:24.769Z,15.47
2019-05-30T07:47:59.100Z,15.52
2019-05-30T07:50:28.464Z,15.58
2019-05-30T07:52:57.968Z,15.52
2019-05-30T07:55:27.241Z,15.56
2019-05-30T07:57:56.544Z,15.57
2019-05-30T08:00:27.403Z,15.60
2019-05-30T08:02:57.690Z,15.65
2019-05-30T08:05:26.940Z,15.59
2019-05-30T08:07:56.140Z,15.54
2019-05-30T08:10:25.387Z,15.64
2019-05-30T08:12:54.578Z,15.66
2019-05-30T08:15:24.017Z,15.69
2019-05-30T08:17:53.553Z,15.73
2019-05-30T08:20:23.229Z,15.77
2019-05-30T08:22:52.425Z,15.76
2019-05-30T08:25:21.613Z,15.57
2019-05-30T08:27:50.803Z,15.80
2019-05-30T08:30:20.432Z,15.78
2019-05-30T08:32:49.646Z,15.80
2019-05-30T08:35:18.970Z,15.86
2019-05-30T08:37:48.170Z,15.90
2019-05-30T08:40:17.347Z,15.97
2019-05-30T08:42:46.542Z,15.90
2019-05-30T08:45:17.059Z,16.00
2019-05-30T08:47:46.258Z,15.98
2019-05-30T08:50:16.187Z,15.96
2019-05-30T08:52:45.387Z,15.93
2019-05-30T08:55:14.721Z,15.90
2019-05-30T08:57:43.909Z,15.90
2019-05-30T09:00:14.940Z,15.94
2019-05-30T09:02:45.233Z,15.99
2019-05-30T09:05:14.503Z,16.04
2019-05-30T09:07:44.629Z,15.98
2019-05-30T09:10:14.462Z,16.06
2019-05-30T09:12:48.743Z,16.16
2019-05-30T09:15:15.585Z,16.16
2019-05-30T09:17:46.712Z,16.18
2019-05-30T09:20:16.746Z,16.16
2019-05-30T09:22:45.941Z,16.28
2019-05-30T09:25:16.905Z,16.32
2019-05-30T09:27:46.663Z,16.30
2019-05-30T09:30:18.086Z,16.33
2019-05-30T09:32:47.270Z,16.30
2019-05-30T09:35:17.284Z,16.32
2019-05-30T09:37:47.795Z,16.41
2019-05-30T09:40:17.792Z,16.33
2019-05-30T09:42:48.679Z,16.48
2019-05-30T09:45:19.329Z,16.54
2019-05-30T09:47:49.285Z,16.32
2019-05-30T09:50:19.414Z,16.35
2019-05-30T09:52:49.412Z,16.37
2019-05-30T09:55:19.507Z,16.31
2019-05-30T09:57:49.623Z,16.43
2019-05-30T10:00:21.578Z,16.44
2019-05-30T10:02:50.761Z,16.49
2019-05-30T10:05:24.200Z,16.57
2019-05-30T10:07:53.001Z,16.59
2019-05-30T10:10:22.594Z,16.58
2019-05-30T10:12:52.664Z,16.65
2019-05-30T10:15:22.485Z,16.70
2019-05-30T10:17:52.950Z,16.76
2019-05-30T10:20:24.051Z,16.77
2019-05-30T10:22:53.928Z,16.78
2019-05-30T10:25:23.545Z,16.83
2019-05-30T10:27:54.649Z,16.84
2019-05-30T10:30:25.756Z,16.85
2019-05-30T10:32:55.941Z,16.89
2019-05-30T10:35:25.253Z,16.88
2019-05-30T10:37:54.423Z,16.92
2019-05-30T10:40:25.418Z,16.92
2019-05-30T10:42:55.105Z,16.89
2019-05-30T10:45:25.547Z,16.89
2019-05-30T10:47:54.722Z,16.87
2019-05-30T10:50:23.974Z,16.87
2019-05-30T10:52:53.590Z,16.90
2019-05-30T10:55:23.966Z,16.94
2019-05-30T10:57:57.533Z,16.83
2019-05-30T11:00:30.752Z,16.85
2019-05-30T11:02:59.909Z,16.88
2019-05-30T11:05:29.092Z,16.92
2019-05-30T11:08:10.506Z,16.88
2019-05-30T11:10:41.861Z,16.82
2019-05-30T11:13:14.668Z,16.82
2019-05-30T11:15:44.502Z,16.92
2019-05-30T11:18:14.025Z,17.01
2019-05-30T11:20:43.288Z,17.09
2019-05-30T11:23:12.467Z,17.18
2019-05-30T11:25:41.654Z,17.27
2019-05-30T11:28:10.833Z,17.19
2019-05-30T11:30:40.026Z,17.20
2019-05-30T11:33:09.290Z,17.25
2019-05-30T11:35:38.490Z,17.29
2019-05-30T11:38:07.731Z,17.33
2019-05-30T11:40:37.072Z,17.52
2019-05-30T11:43:07.142Z,17.58
2019-05-30T11:45:36.325Z,17.64
2019-05-30T11:48:05.521Z,17.72
2019-05-30T11:50:34.820Z,17.69
2019-05-30T11:53:04.087Z,17.75
2019-05-30T11:55:33.342Z,17.94
2019-05-30T11:58:02.612Z,18.02
2019-05-30T12:00:32.053Z,18.12
2019-05-30T12:03:01.259Z,18.11
2019-05-30T12:05:30.514Z,18.18
2019-05-30T12:08:00.916Z,18.29
2019-05-30T12:10:31.663Z,18.35
2019-05-30T12:13:01.599Z,18.38
2019-05-30T12:15:31.101Z,18.47
2019-05-30T12:18:02.215Z,18.63
2019-05-30T12:20:31.205Z,18.78
2019-05-30T12:23:00.395Z,18.76
2019-05-30T12:25:29.585Z,18.75
2019-05-30T12:27:58.792Z,18.83
2019-05-30T12:30:28.137Z,18.90
2019-05-30T12:32:58.319Z,18.83
2019-05-30T12:35:27.587Z,18.82
2019-05-30T12:38:01.345Z,18.95
2019-05-30T12:40:27.764Z,18.97
2019-05-30T12:42:59.185Z,19.05
2019-05-30T12:45:27.919Z,19.11
2019-05-30T12:47:57.165Z,19.22
2019-05-30T12:50:26.482Z,19.29
2019-05-30T12:52:55.718Z,19.41
2019-05-30T12:55:25.166Z,19.39
2019-05-30T12:57:54.578Z,19.44
2019-05-30T13:00:29.703Z,19.49
2019-05-30T13:02:58.940Z,19.54
2019-05-30T13:05:28.163Z,19.57
2019-05-30T13:08:14.457Z,19.61
2019-05-30T13:10:28.580Z,19.67
2019-05-30T13:12:57.783Z,19.72
2019-05-30T13:15:26.974Z,19.74
2019-05-30T13:17:57.302Z,19.68
2019-05-30T13:20:26.784Z,19.72
2019-05-30T13:22:56.334Z,19.74
2019-05-30T13:25:25.763Z,19.78
2019-05-30T13:27:55.780Z,19.75
2019-05-30T13:30:25.283Z,19.76
2019-05-30T13:32:54.476Z,19.79
2019-05-30T13:35:25.630Z,19.79
2019-05-30T13:37:57.084Z,19.82
2019-05-30T13:40:26.384Z,19.90
2019-05-30T13:42:55.592Z,19.91
2019-05-30T13:45:25.228Z,19.92
2019-05-30T13:47:54.444Z,19.92
2019-05-30T13:50:23.754Z,19.92
2019-05-30T13:52:52.940Z,19.92
2019-05-30T13:55:22.481Z,20.01
2019-05-30T13:57:51.656Z,19.99
2019-05-30T14:00:21.386Z,20.01
2019-05-30T14:02:50.564Z,20.09
2019-05-30T14:05:19.842Z,20.10
2019-05-30T14:07:49.097Z,20.12
2019-05-30T14:10:18.619Z,20.01
2019-05-30T14:12:47.865Z,19.99
2019-05-30T14:15:18.219Z,20.02
2019-05-30T14:17:47.416Z,20.06
2019-05-30T14:20:17.218Z,20.14
2019-05-30T14:22:46.483Z,20.17
2019-05-30T14:25:16.369Z,20.12
2019-05-30T14:27:45.564Z,20.09
2019-05-30T14:30:14.936Z,20.07
2019-05-30T14:32:44.117Z,20.11
2019-05-30T14:35:14.015Z,20.17
2019-05-30T14:37:43.284Z,20.24
2019-05-30T14:40:14.795Z,20.25
2019-05-30T14:42:43.997Z,20.20
2019-05-30T14:45:16.838Z,20.22
2019-05-30T14:47:46.267Z,20.17
2019-05-30T14:50:17.303Z,20.15
2019-05-30T14:52:47.131Z,20.09
2019-05-30T14:55:17.368Z,20.12
2019-05-30T14:57:46.743Z,20.10
2019-05-30T15:00:18.018Z,20.12
2019-05-30T15:02:47.537Z,20.08
2019-05-30T15:05:17.683Z,20.07
2019-05-30T15:07:46.878Z,19.97
2019-05-30T15:10:17.167Z,19.98
2019-05-30T15:12:46.452Z,19.99
2019-05-30T15:15:18.551Z,19.99
2019-05-30T15:17:47.738Z,20.06
2019-05-30T15:20:17.758Z,20.04
2019-05-30T15:22:47.278Z,20.07
2019-05-30T15:25:18.054Z,20.17
2019-05-30T15:27:47.510Z,20.21
2019-05-30T15:30:19.142Z,20.19
2019-05-30T15:32:48.315Z,20.20
2019-05-30T15:35:19.047Z,20.26
2019-05-30T15:37:48.547Z,20.28
2019-05-30T15:40:18.179Z,20.30
2019-05-30T15:42:47.342Z,20.35
2019-05-30T15:45:18.121Z,20.33
2019-05-30T15:47:47.545Z,20.42
2019-05-30T15:50:18.758Z,20.41
2019-05-30T15:52:48.063Z,20.46
2019-05-30T15:55:17.624Z,20.49
2019-05-30T15:57:46.856Z,20.42
2019-05-30T16:00:18.139Z,20.32
2019-05-30T16:02:47.258Z,20.30
2019-05-30T16:05:18.671Z,20.28
2019-05-30T16:07:49.977Z,20.29
2019-05-30T16:10:19.261Z,20.33
2019-05-30T16:12:48.463Z,20.36
2019-05-30T16:15:19.695Z,20.30
2019-05-30T16:17:48.875Z,20.23
2019-05-30T16:20:18.532Z,20.26
2019-05-30T16:22:47.727Z,20.31
2019-05-30T16:25:17.733Z,20.29
2019-05-30T16:27:47.002Z,20.25
2019-05-30T16:30:19.769Z,20.15
2019-05-30T16:32:47.882Z,20.14
2019-05-30T16:35:18.184Z,20.18
2019-05-30T16:37:47.587Z,20.25
2019-05-30T16:40:18.431Z,20.25
2019-05-30T16:42:47.596Z,20.20
2019-05-30T16:45:20.338Z,20.14
2019-05-30T16:47:49.338Z,20.16
2019-05-30T16:50:22.778Z,20.14
2019-05-30T16:52:52.222Z,20.14
2019-05-30T16:55:21.635Z,20.17
2019-05-30T16:57:50.843Z,20.13
2019-05-30T17:00:21.849Z,20.12
2019-05-30T17:02:51.131Z,20.11
2019-05-30T17:05:20.400Z,20.13
2019-05-30T17:07:49.874Z,20.17
2019-05-30T17:10:26.680Z,20.15
2019-05-30T17:12:50.096Z,20.10
2019-05-30T17:15:19.980Z,20.02
2019-05-30T17:17:49.397Z,20.03
2019-05-30T17:20:22.479Z,20.02
2019-05-30T17:22:51.818Z,20.01
2019-05-30T17:25:21.061Z,19.99
2019-05-30T17:27:50.183Z,19.96
2019-05-30T17:30:19.802Z,19.95
2019-05-30T17:32:48.982Z,19.92
2019-05-30T17:35:18.362Z,19.94
2019-05-30T17:37:47.541Z,19.92
2019-05-30T17:40:16.799Z,19.88
2019-05-30T17:42:45.986Z,19.88
2019-05-30T17:45:16.596Z,19.88
2019-05-30T17:47:45.805Z,19.77
2019-05-30T17:50:15.526Z,19.82
2019-05-30T17:52:45.056Z,19.79
2019-05-30T17:55:14.895Z,19.78
2019-05-30T17:57:44.088Z,19.80
2019-05-30T18:00:15.680Z,19.77
2019-05-30T18:02:44.861Z,19.74
2019-05-30T18:05:14.480Z,19.76
2019-05-30T18:07:43.685Z,19.72
2019-05-30T18:10:13.713Z,19.66
2019-05-30T18:12:43.067Z,19.64
2019-05-30T18:15:14.798Z,19.65
2019-05-30T18:17:43.997Z,19.62
2019-05-30T18:20:14.993Z,19.61
2019-05-30T18:22:44.339Z,19.62
2019-05-30T18:25:14.176Z,19.64
2019-05-30T18:27:43.382Z,19.61
2019-05-30T18:30:13.315Z,19.57
2019-05-30T18:32:43.611Z,19.59
2019-05-30T18:35:12.855Z,19.60
2019-05-30T18:37:42.327Z,19.61
2019-05-30T18:40:12.255Z,19.63
2019-05-30T18:42:41.609Z,19.53
2019-05-30T18:45:11.437Z,19.57
2019-05-30T18:47:40.916Z,19.55
2019-05-30T18:50:10.572Z,19.57
2019-05-30T18:52:39.771Z,19.62
2019-05-30T18:55:10.088Z,19.65
2019-05-30T18:57:39.270Z,19.64
2019-05-30T19:00:10.029Z,19.64
2019-05-30T19:02:40.829Z,19.63
2019-05-30T19:05:10.157Z,19.61
2019-05-30T19:07:39.367Z,19.62
2019-05-30T19:10:09.015Z,19.53
2019-05-30T19:12:38.287Z,19.49
2019-05-30T19:15:08.127Z,19.48
2019-05-30T19:17:37.523Z,19.50
2019-05-30T19:20:07.460Z,19.49
2019-05-30T19:22:36.799Z,19.51
2019-05-30T19:25:07.583Z,19.52
2019-05-30T19:27:38.515Z,19.49
2019-05-30T19:30:11.026Z,19.49
2019-05-30T19:32:40.437Z,19.49
2019-05-30T19:35:11.206Z,19.49
2019-05-30T19:37:42.341Z,19.47
2019-05-30T19:40:12.226Z,19.42
2019-05-30T19:42:41.437Z,19.41
2019-05-30T19:45:12.159Z,19.36
2019-05-30T19:47:41.339Z,19.37
2019-05-30T19:50:11.784Z,19.30
2019-05-30T19:52:41.435Z,19.24
2019-05-30T19:55:10.756Z,19.27
2019-05-30T19:57:40.255Z,19.31
2019-05-30T20:00:11.596Z,19.35
2019-05-30T20:02:40.792Z,19.34
2019-05-30T20:05:10.328Z,19.32
2019-05-30T20:07:40.794Z,19.34
2019-05-30T20:10:10.725Z,19.30
2019-05-30T20:12:41.072Z,19.28
2019-05-30T20:15:12.188Z,19.21
2019-05-30T20:17:42.042Z,19.19
2019-05-30T20:20:12.240Z,19.22
2019-05-30T20:22:42.382Z,19.24
2019-05-30T20:25:12.178Z,19.13
2019-05-30T20:27:41.358Z,19.17
2019-05-30T20:30:11.899Z,19.20
2019-05-30T20:32:41.118Z,19.14
2019-05-30T20:35:10.524Z,19.06
2019-05-30T20:37:40.791Z,19.07
2019-05-30T20:40:10.927Z,19.07
2019-05-30T20:42:41.044Z,19.10
2019-05-30T20:45:10.848Z,19.15
2019-05-30T20:47:42.141Z,19.20
2019-05-30T20:50:14.165Z,19.14
2019-05-30T20:52:45.314Z,19.16
2019-05-30T20:55:13.883Z,19.09
2019-05-30T20:57:43.053Z,19.08
2019-05-30T21:00:13.774Z,19.11
2019-05-30T21:02:43.684Z,19.08
2019-05-30T21:05:13.387Z,19.04
2019-05-30T21:07:44.521Z,19.03
2019-05-30T21:10:14.405Z,18.99
2019-05-30T21:12:46.968Z,19.01
2019-05-30T21:15:15.557Z,18.96
2019-05-30T21:17:46.490Z,19.01
2019-05-30T21:20:15.916Z,18.95
2019-05-30T21:22:46.492Z,18.97
2019-05-30T21:25:16.258Z,18.91
2019-05-30T21:27:45.469Z,18.91
2019-05-30T21:30:15.174Z,18.97
2019-05-30T21:32:46.272Z,18.98
2019-05-30T21:35:15.818Z,18.99
2019-05-30T21:37:45.822Z,18.98
2019-05-30T21:40:15.684Z,18.97
2019-05-30T21:43:02.945Z,18.96
2019-05-30T21:45:16.110Z,18.97
2019-05-30T21:47:45.296Z,18.99
2019-05-30T21:50:16.137Z,19.02
2019-05-30T21:52:46.290Z,18.95
2019-05-30T21:55:15.897Z,19.04
2019-05-30T21:57:46.064Z,18.97
2019-05-30T22:00:21.794Z,18.96
2019-05-30T22:02:54.527Z,18.86
2019-05-30T22:05:24.199Z,18.86
2019-05-30T22:07:53.395Z,18.82
2019-05-30T22:10:22.572Z,18.85
2019-05-30T22:12:51.920Z,18.88
2019-05-30T22:15:21.121Z,18.80
2019-05-30T22:17:50.441Z,18.85
2019-05-30T22:20:21.698Z,18.86
2019-05-30T22:22:50.912Z,18.90
2019-05-30T22:25:20.061Z,18.81
2019-05-30T22:27:50.549Z,18.83
2019-05-30T22:30:20.339Z,18.79
2019-05-30T22:32:50.677Z,18.72
2019-05-30T22:35:19.915Z,18.68
2019-05-30T22:37:49.105Z,18.77
2019-05-30T22:40:18.273Z,18.71
2019-05-30T22:42:48.112Z,18.74
2019-05-30T22:45:17.563Z,18.74
2019-05-30T22:47:46.737Z,18.64
2019-05-30T22:50:15.923Z,18.63
2019-05-30T22:52:45.106Z,18.66
2019-05-30T22:55:14.298Z,18.76
2019-05-30T22:57:44.348Z,18.71
2019-05-30T23:00:15.053Z,18.73
2019-05-30T23:03:02.331Z,18.61
2019-05-30T23:05:31.511Z,18.63
2019-05-30T23:08:00.727Z,18.51
2019-05-30T23:10:29.914Z,18.44
2019-05-30T23:12:59.103Z,18.44
2019-05-30T23:15:28.300Z,18.40
2019-05-30T23:17:57.483Z,18.41
2019-05-30T23:20:26.699Z,18.30
2019-05-30T23:22:57.095Z,18.39
2019-05-30T23:25:26.329Z,18.20
2019-05-30T23:27:55.674Z,18.30
2019-05-30T23:30:25.009Z,18.38
2019-05-30T23:32:54.382Z,18.22
2019-05-30T23:35:25.204Z,18.31
2019-05-30T23:37:54.745Z,18.19
2019-05-30T23:40:23.991Z,18.18
2019-05-30T23:42:53.177Z,18.21
2019-05-30T23:45:22.361Z,18.23
2019-05-30T23:47:53.531Z,18.08
2019-05-30T23:50:22.868Z,18.09
2019-05-30T23:52:52.133Z,18.20
2019-05-30T23:55:21.268Z,18.09
2019-05-30T23:57:50.438Z,18.13
